Durkee, Oregon
Current Conditions -  °F | °C
As of 10:53 PM on Thursday 27 Nov 2014 (Local Time) from KBKE Reporting Station
Overcast Overcast  
Wind Chill: 42°   Ceiling: 4600
Heat Index: 47°   Visibility: 10mi
Dew Point: 39°   Wind: 10mph
Humidity: 74%   Direction: 120°ESE
Pressure: 29.92"   Gusts: 21mph
Location:  44.58°N, 117.46°W
Report Text: KBKE 280653Z AUTO 12009G18KT 10SM BKN046 OVC055 08/04 A2992 RMK AO2 SLP130 T00830039 $
Loading
Personal Weather Stations






























Interactive Weather Map New forecast layout! Learn more

10-Day Weather Forecast

Advertisements
Track Severe Weather on mobile